Terminal Aerodrome Forecast
Issued by NWS

Home | Current Version | Previous Version | Text Only | Print | Product List | Glossary Off
Versions: 1 2 3 4 5 6 7 8 9 10 11 12 13 14 15 16 17 18

293
FTUS43 KFGF 082106 AAA
TAFBJI
TAF AMD
KBJI 082106Z 0821/0918 32016G24KT P6SM -SN OVC020
      TEMPO 0821/0824 3SM -SN
     FM090000 32017KT P6SM BKN025
     FM090400 31014KT P6SM BKN030
     FM090700 32012KT P6SM SCT050=

USA.gov is the U.S. government's official web portal to all federal, state and local government web resources and services.